sensor_id;sensor_type;location;lat;lon;timestamp;P1;durP1;ratioP1;P2;durP2;ratioP2
5878;SDS011;2965;42.640;23.370;2022-08-25T00:01:08;16.57;;;10.87;;
5878;SDS011;2965;42.640;23.370;2022-08-25T00:03:38;18.57;;;11.20;;
5878;SDS011;2965;42.640;23.370;2022-08-25T00:06:05;27.53;;;14.03;;
5878;SDS011;2965;42.640;23.370;2022-08-25T00:08:32;24.87;;;10.93;;
5878;SDS011;2965;42.640;23.370;2022-08-25T00:11:00;20.83;;;10.47;;
5878;SDS011;2965;42.640;23.370;2022-08-25T00:13:27;28.70;;;10.90;;
5878;SDS011;2965;42.640;23.370;2022-08-25T00:15:53;18.07;;;10.13;;
5878;SDS011;2965;42.640;23.370;2022-08-25T00:18:19;32.27;;;11.67;;
5878;SDS011;2965;42.640;23.370;2022-08-25T00:20:45;38.80;;;11.53;;
5878;SDS011;2965;42.640;23.370;2022-08-25T00:23:11;35.67;;;10.60;;
5878;SDS011;2965;42.640;23.370;2022-08-25T00:25:36;21.03;;;9.80;;
5878;SDS011;2965;42.640;23.370;2022-08-25T00:28:02;22.73;;;9.30;;
5878;SDS011;2965;42.640;23.370;2022-08-25T00:30:28;16.43;;;9.23;;
5878;SDS011;2965;42.640;23.370;2022-08-25T00:32:54;27.20;;;11.30;;
5878;SDS011;2965;42.640;23.370;2022-08-25T00:35:20;16.83;;;9.80;;
5878;SDS011;2965;42.640;23.370;2022-08-25T00:37:47;26.67;;;10.73;;
5878;SDS011;2965;42.640;23.370;2022-08-25T00:40:13;17.23;;;9.70;;
5878;SDS011;2965;42.640;23.370;2022-08-25T00:42:38;25.90;;;11.03;;
5878;SDS011;2965;42.640;23.370;2022-08-25T00:45:06;39.13;;;13.17;;
5878;SDS011;2965;42.640;23.370;2022-08-25T00:47:32;22.53;;;10.93;;
5878;SDS011;2965;42.640;23.370;2022-08-25T00:49:58;30.67;;;11.13;;
5878;SDS011;2965;42.640;23.370;2022-08-25T00:52:28;35.53;;;11.73;;
5878;SDS011;2965;42.640;23.370;2022-08-25T00:55:00;28.63;;;10.93;;
5878;SDS011;2965;42.640;23.370;2022-08-25T00:57:34;31.37;;;10.33;;
5878;SDS011;2965;42.640;23.370;2022-08-25T01:00:16;22.73;;;10.00;;
5878;SDS011;2965;42.640;23.370;2022-08-25T01:02:44;33.07;;;10.37;;
5878;SDS011;2965;42.640;23.370;2022-08-25T01:05:10;22.80;;;10.53;;
5878;SDS011;2965;42.640;23.370;2022-08-25T01:07:36;21.33;;;9.90;;
5878;SDS011;2965;42.640;23.370;2022-08-25T01:10:03;22.90;;;10.97;;
5878;SDS011;2965;42.640;23.370;2022-08-25T01:12:31;19.30;;;11.33;;
5878;SDS011;2965;42.640;23.370;2022-08-25T01:14:57;26.20;;;9.97;;
5878;SDS011;2965;42.640;23.370;2022-08-25T01:17:24;21.07;;;10.00;;
5878;SDS011;2965;42.640;23.370;2022-08-25T01:19:52;16.93;;;9.60;;
5878;SDS011;2965;42.640;23.370;2022-08-25T01:22:18;19.23;;;10.10;;
5878;SDS011;2965;42.640;23.370;2022-08-25T01:27:58;22.13;;;10.87;;
5878;SDS011;2965;42.640;23.370;2022-08-25T01:30:23;14.90;;;10.00;;
5878;SDS011;2965;42.640;23.370;2022-08-25T01:32:49;21.20;;;9.57;;
5878;SDS011;2965;42.640;23.370;2022-08-25T01:35:15;16.40;;;10.50;;
5878;SDS011;2965;42.640;23.370;2022-08-25T01:37:40;19.57;;;10.27;;
5878;SDS011;2965;42.640;23.370;2022-08-25T01:40:06;24.23;;;11.07;;
5878;SDS011;2965;42.640;23.370;2022-08-25T01:45:27;32.97;;;10.60;;
5878;SDS011;2965;42.640;23.370;2022-08-25T01:47:52;20.63;;;10.53;;
5878;SDS011;2965;42.640;23.370;2022-08-25T01:50:18;20.20;;;11.47;;
5878;SDS011;2965;42.640;23.370;2022-08-25T01:52:46;24.77;;;11.77;;
5878;SDS011;2965;42.640;23.370;2022-08-25T01:55:23;20.90;;;11.40;;
5878;SDS011;2965;42.640;23.370;2022-08-25T01:57:49;13.60;;;9.93;;
5878;SDS011;2965;42.640;23.370;2022-08-25T02:00:15;20.83;;;11.33;;
5878;SDS011;2965;42.640;23.370;2022-08-25T02:02:42;28.80;;;12.03;;
5878;SDS011;2965;42.640;23.370;2022-08-25T02:05:08;15.57;;;10.30;;
5878;SDS011;2965;42.640;23.370;2022-08-25T02:07:35;15.10;;;9.07;;
5878;SDS011;2965;42.640;23.370;2022-08-25T02:10:02;19.87;;;10.80;;
5878;SDS011;2965;42.640;23.370;2022-08-25T02:12:30;19.70;;;10.67;;
5878;SDS011;2965;42.640;23.370;2022-08-25T02:14:57;13.33;;;9.63;;
5878;SDS011;2965;42.640;23.370;2022-08-25T02:17:23;18.50;;;10.40;;
5878;SDS011;2965;42.640;23.370;2022-08-25T02:19:49;25.67;;;13.60;;
5878;SDS011;2965;42.640;23.370;2022-08-25T02:22:14;16.50;;;10.70;;
5878;SDS011;2965;42.640;23.370;2022-08-25T02:24:40;26.93;;;12.80;;
5878;SDS011;2965;42.640;23.370;2022-08-25T02:27:05;26.47;;;12.63;;
5878;SDS011;2965;42.640;23.370;2022-08-25T02:29:31;17.27;;;12.73;;
5878;SDS011;2965;42.640;23.370;2022-08-25T02:31:57;19.00;;;12.50;;
5878;SDS011;2965;42.640;23.370;2022-08-25T02:34:23;37.17;;;13.77;;
5878;SDS011;2965;42.640;23.370;2022-08-25T02:36:48;19.33;;;11.90;;
5878;SDS011;2965;42.640;23.370;2022-08-25T02:39:14;22.77;;;13.43;;
5878;SDS011;2965;42.640;23.370;2022-08-25T02:41:39;39.03;;;13.57;;
5878;SDS011;2965;42.640;23.370;2022-08-25T02:44:05;32.83;;;13.67;;
5878;SDS011;2965;42.640;23.370;2022-08-25T02:46:32;29.77;;;12.73;;
5878;SDS011;2965;42.640;23.370;2022-08-25T02:48:58;20.83;;;12.43;;
5878;SDS011;2965;42.640;23.370;2022-08-25T02:51:24;29.40;;;12.67;;
5878;SDS011;2965;42.640;23.370;2022-08-25T02:53:52;29.20;;;13.00;;
5878;SDS011;2965;42.640;23.370;2022-08-25T02:56:18;17.27;;;12.60;;
5878;SDS011;2965;42.640;23.370;2022-08-25T02:58:44;25.87;;;12.70;;
5878;SDS011;2965;42.640;23.370;2022-08-25T03:01:10;42.57;;;11.63;;
5878;SDS011;2965;42.640;23.370;2022-08-25T03:03:36;23.00;;;12.67;;
5878;SDS011;2965;42.640;23.370;2022-08-25T03:06:09;24.70;;;11.67;;
5878;SDS011;2965;42.640;23.370;2022-08-25T03:08:37;27.43;;;11.57;;
5878;SDS011;2965;42.640;23.370;2022-08-25T03:11:04;21.00;;;12.10;;
5878;SDS011;2965;42.640;23.370;2022-08-25T03:13:30;28.77;;;10.50;;
5878;SDS011;2965;42.640;23.370;2022-08-25T03:16:00;23.47;;;11.67;;
5878;SDS011;2965;42.640;23.370;2022-08-25T03:18:27;19.57;;;12.13;;
5878;SDS011;2965;42.640;23.370;2022-08-25T03:20:53;23.33;;;11.57;;
5878;SDS011;2965;42.640;23.370;2022-08-25T03:23:18;30.97;;;11.80;;
5878;SDS011;2965;42.640;23.370;2022-08-25T03:25:44;27.20;;;12.90;;
5878;SDS011;2965;42.640;23.370;2022-08-25T03:28:28;26.73;;;13.60;;
5878;SDS011;2965;42.640;23.370;2022-08-25T03:31:00;42.40;;;12.80;;
5878;SDS011;2965;42.640;23.370;2022-08-25T03:33:27;30.37;;;12.63;;
5878;SDS011;2965;42.640;23.370;2022-08-25T03:35:54;30.23;;;13.10;;
5878;SDS011;2965;42.640;23.370;2022-08-25T03:38:20;23.63;;;11.40;;
5878;SDS011;2965;42.640;23.370;2022-08-25T03:40:46;18.63;;;10.80;;
5878;SDS011;2965;42.640;23.370;2022-08-25T03:43:13;17.33;;;11.73;;
5878;SDS011;2965;42.640;23.370;2022-08-25T03:45:39;16.80;;;11.10;;
5878;SDS011;2965;42.640;23.370;2022-08-25T03:48:07;39.87;;;12.60;;
5878;SDS011;2965;42.640;23.370;2022-08-25T03:50:32;31.63;;;11.30;;
5878;SDS011;2965;42.640;23.370;2022-08-25T03:52:58;22.90;;;10.93;;
5878;SDS011;2965;42.640;23.370;2022-08-25T03:55:24;29.17;;;12.40;;
5878;SDS011;2965;42.640;23.370;2022-08-25T03:57:51;43.03;;;12.87;;
5878;SDS011;2965;42.640;23.370;2022-08-25T04:00:18;25.40;;;10.20;;
5878;SDS011;2965;42.640;23.370;2022-08-25T04:02:47;23.93;;;10.40;;
5878;SDS011;2965;42.640;23.370;2022-08-25T04:05:12;33.50;;;11.10;;
5878;SDS011;2965;42.640;23.370;2022-08-25T04:07:38;37.27;;;13.17;;
5878;SDS011;2965;42.640;23.370;2022-08-25T04:10:04;24.47;;;11.23;;
5878;SDS011;2965;42.640;23.370;2022-08-25T04:12:31;21.80;;;11.70;;
5878;SDS011;2965;42.640;23.370;2022-08-25T04:14:57;35.13;;;12.87;;
5878;SDS011;2965;42.640;23.370;2022-08-25T04:17:22;23.10;;;12.07;;
5878;SDS011;2965;42.640;23.370;2022-08-25T04:19:48;48.10;;;14.47;;
5878;SDS011;2965;42.640;23.370;2022-08-25T04:22:15;44.70;;;11.63;;
5878;SDS011;2965;42.640;23.370;2022-08-25T04:24:40;23.30;;;11.93;;
5878;SDS011;2965;42.640;23.370;2022-08-25T04:27:06;22.97;;;12.80;;
5878;SDS011;2965;42.640;23.370;2022-08-25T04:29:31;24.73;;;11.50;;
5878;SDS011;2965;42.640;23.370;2022-08-25T04:31:57;24.07;;;12.20;;
5878;SDS011;2965;42.640;23.370;2022-08-25T04:34:23;39.00;;;14.40;;
5878;SDS011;2965;42.640;23.370;2022-08-25T04:36:50;27.57;;;12.87;;
5878;SDS011;2965;42.640;23.370;2022-08-25T04:39:16;32.97;;;13.00;;
5878;SDS011;2965;42.640;23.370;2022-08-25T04:41:44;29.13;;;11.60;;
5878;SDS011;2965;42.640;23.370;2022-08-25T04:44:10;21.90;;;11.60;;
5878;SDS011;2965;42.640;23.370;2022-08-25T04:46:35;24.87;;;12.30;;
5878;SDS011;2965;42.640;23.370;2022-08-25T04:49:02;29.63;;;12.73;;
5878;SDS011;2965;42.640;23.370;2022-08-25T04:51:29;24.43;;;11.90;;
5878;SDS011;2965;42.640;23.370;2022-08-25T04:53:58;20.47;;;13.10;;
5878;SDS011;2965;42.640;23.370;2022-08-25T04:56:26;18.67;;;9.90;;
5878;SDS011;2965;42.640;23.370;2022-08-25T04:58:52;23.37;;;12.37;;
5878;SDS011;2965;42.640;23.370;2022-08-25T05:01:20;21.47;;;10.77;;
5878;SDS011;2965;42.640;23.370;2022-08-25T05:03:51;21.67;;;11.10;;
5878;SDS011;2965;42.640;23.370;2022-08-25T05:06:19;20.43;;;11.20;;
5878;SDS011;2965;42.640;23.370;2022-08-25T05:08:45;30.83;;;11.20;;
5878;SDS011;2965;42.640;23.370;2022-08-25T05:11:10;25.37;;;11.43;;
5878;SDS011;2965;42.640;23.370;2022-08-25T05:13:38;21.33;;;11.80;;
5878;SDS011;2965;42.640;23.370;2022-08-25T05:16:04;38.33;;;13.43;;
5878;SDS011;2965;42.640;23.370;2022-08-25T05:18:31;18.40;;;11.80;;
5878;SDS011;2965;42.640;23.370;2022-08-25T05:21:00;15.90;;;11.73;;
5878;SDS011;2965;42.640;23.370;2022-08-25T05:23:46;33.97;;;13.93;;
5878;SDS011;2965;42.640;23.370;2022-08-25T05:26:13;29.80;;;11.10;;
5878;SDS011;2965;42.640;23.370;2022-08-25T05:28:44;20.33;;;12.90;;
5878;SDS011;2965;42.640;23.370;2022-08-25T05:31:11;19.20;;;11.93;;
5878;SDS011;2965;42.640;23.370;2022-08-25T05:33:38;25.10;;;13.60;;
5878;SDS011;2965;42.640;23.370;2022-08-25T05:36:05;25.57;;;13.00;;
5878;SDS011;2965;42.640;23.370;2022-08-25T05:38:31;27.43;;;13.50;;
5878;SDS011;2965;42.640;23.370;2022-08-25T05:41:01;27.63;;;15.23;;
5878;SDS011;2965;42.640;23.370;2022-08-25T05:43:34;25.93;;;13.97;;
5878;SDS011;2965;42.640;23.370;2022-08-25T05:46:01;32.67;;;14.13;;
5878;SDS011;2965;42.640;23.370;2022-08-25T05:48:26;24.73;;;12.03;;
5878;SDS011;2965;42.640;23.370;2022-08-25T05:50:55;32.23;;;13.70;;
5878;SDS011;2965;42.640;23.370;2022-08-25T05:53:24;24.13;;;12.97;;
5878;SDS011;2965;42.640;23.370;2022-08-25T05:55:51;27.07;;;13.50;;
5878;SDS011;2965;42.640;23.370;2022-08-25T05:58:18;32.63;;;13.83;;
5878;SDS011;2965;42.640;23.370;2022-08-25T06:00:44;38.57;;;15.10;;
5878;SDS011;2965;42.640;23.370;2022-08-25T06:03:09;22.30;;;13.00;;
5878;SDS011;2965;42.640;23.370;2022-08-25T06:05:35;26.63;;;12.67;;
5878;SDS011;2965;42.640;23.370;2022-08-25T06:08:01;25.60;;;13.60;;
5878;SDS011;2965;42.640;23.370;2022-08-25T06:10:27;19.70;;;13.00;;
5878;SDS011;2965;42.640;23.370;2022-08-25T06:12:53;50.70;;;13.23;;
5878;SDS011;2965;42.640;23.370;2022-08-25T06:15:19;32.17;;;13.50;;
5878;SDS011;2965;42.640;23.370;2022-08-25T06:17:46;26.33;;;13.30;;
5878;SDS011;2965;42.640;23.370;2022-08-25T06:20:14;20.80;;;13.47;;
5878;SDS011;2965;42.640;23.370;2022-08-25T06:22:50;32.63;;;16.17;;
5878;SDS011;2965;42.640;23.370;2022-08-25T06:25:17;27.30;;;15.20;;
5878;SDS011;2965;42.640;23.370;2022-08-25T06:27:44;44.47;;;15.50;;
5878;SDS011;2965;42.640;23.370;2022-08-25T06:30:11;33.57;;;13.90;;
5878;SDS011;2965;42.640;23.370;2022-08-25T06:32:39;29.13;;;14.43;;
5878;SDS011;2965;42.640;23.370;2022-08-25T06:35:07;44.63;;;14.90;;
5878;SDS011;2965;42.640;23.370;2022-08-25T06:37:36;25.97;;;12.10;;
5878;SDS011;2965;42.640;23.370;2022-08-25T06:40:02;22.43;;;11.53;;
5878;SDS011;2965;42.640;23.370;2022-08-25T06:42:29;22.80;;;13.27;;
5878;SDS011;2965;42.640;23.370;2022-08-25T06:44:55;29.47;;;10.60;;
5878;SDS011;2965;42.640;23.370;2022-08-25T06:47:20;22.40;;;12.13;;
5878;SDS011;2965;42.640;23.370;2022-08-25T06:49:46;16.47;;;10.33;;
5878;SDS011;2965;42.640;23.370;2022-08-25T06:52:12;27.37;;;11.00;;
5878;SDS011;2965;42.640;23.370;2022-08-25T06:54:38;18.97;;;11.30;;
5878;SDS011;2965;42.640;23.370;2022-08-25T06:57:04;38.07;;;11.20;;
5878;SDS011;2965;42.640;23.370;2022-08-25T06:59:30;27.83;;;9.60;;
5878;SDS011;2965;42.640;23.370;2022-08-25T07:01:56;25.87;;;11.10;;
5878;SDS011;2965;42.640;23.370;2022-08-25T07:04:23;19.43;;;9.77;;
5878;SDS011;2965;42.640;23.370;2022-08-25T07:06:48;18.53;;;9.50;;
5878;SDS011;2965;42.640;23.370;2022-08-25T07:09:14;28.10;;;9.17;;
5878;SDS011;2965;42.640;23.370;2022-08-25T07:11:40;24.83;;;9.80;;
5878;SDS011;2965;42.640;23.370;2022-08-25T07:14:07;13.13;;;9.70;;
5878;SDS011;2965;42.640;23.370;2022-08-25T07:16:35;16.40;;;9.13;;
5878;SDS011;2965;42.640;23.370;2022-08-25T07:19:00;17.10;;;8.60;;
5878;SDS011;2965;42.640;23.370;2022-08-25T07:21:27;18.73;;;8.20;;
5878;SDS011;2965;42.640;23.370;2022-08-25T07:23:55;29.77;;;9.20;;
5878;SDS011;2965;42.640;23.370;2022-08-25T07:26:27;16.63;;;9.77;;
5878;SDS011;2965;42.640;23.370;2022-08-25T07:28:55;33.60;;;9.73;;
5878;SDS011;2965;42.640;23.370;2022-08-25T07:31:22;15.33;;;8.50;;
5878;SDS011;2965;42.640;23.370;2022-08-25T07:33:48;17.13;;;8.27;;
5878;SDS011;2965;42.640;23.370;2022-08-25T07:36:32;22.00;;;8.83;;
5878;SDS011;2965;42.640;23.370;2022-08-25T07:38:58;16.80;;;9.23;;
5878;SDS011;2965;42.640;23.370;2022-08-25T07:41:24;19.57;;;9.23;;
5878;SDS011;2965;42.640;23.370;2022-08-25T07:43:50;24.93;;;8.60;;
5878;SDS011;2965;42.640;23.370;2022-08-25T07:46:16;14.20;;;10.33;;
5878;SDS011;2965;42.640;23.370;2022-08-25T07:48:41;33.73;;;9.17;;
5878;SDS011;2965;42.640;23.370;2022-08-25T07:51:08;17.07;;;8.17;;
5878;SDS011;2965;42.640;23.370;2022-08-25T07:53:35;21.13;;;8.90;;
5878;SDS011;2965;42.640;23.370;2022-08-25T07:56:00;17.73;;;7.97;;
5878;SDS011;2965;42.640;23.370;2022-08-25T07:58:26;23.20;;;9.20;;
5878;SDS011;2965;42.640;23.370;2022-08-25T08:00:52;20.93;;;8.10;;
5878;SDS011;2965;42.640;23.370;2022-08-25T08:03:18;38.27;;;10.90;;
5878;SDS011;2965;42.640;23.370;2022-08-25T08:05:45;21.80;;;8.00;;
5878;SDS011;2965;42.640;23.370;2022-08-25T08:08:10;17.23;;;8.50;;
5878;SDS011;2965;42.640;23.370;2022-08-25T08:10:39;22.23;;;8.60;;
5878;SDS011;2965;42.640;23.370;2022-08-25T08:13:05;69.20;;;8.90;;
5878;SDS011;2965;42.640;23.370;2022-08-25T08:15:31;19.83;;;7.67;;
5878;SDS011;2965;42.640;23.370;2022-08-25T08:17:57;20.20;;;9.17;;
5878;SDS011;2965;42.640;23.370;2022-08-25T08:20:23;17.10;;;8.87;;
5878;SDS011;2965;42.640;23.370;2022-08-25T08:22:49;22.07;;;8.10;;
5878;SDS011;2965;42.640;23.370;2022-08-25T08:25:15;32.03;;;9.17;;
5878;SDS011;2965;42.640;23.370;2022-08-25T08:27:40;18.00;;;7.40;;
5878;SDS011;2965;42.640;23.370;2022-08-25T08:30:07;26.73;;;8.77;;
5878;SDS011;2965;42.640;23.370;2022-08-25T08:32:33;41.80;;;9.90;;
5878;SDS011;2965;42.640;23.370;2022-08-25T08:34:58;23.60;;;9.13;;
5878;SDS011;2965;42.640;23.370;2022-08-25T08:37:23;32.37;;;7.87;;
5878;SDS011;2965;42.640;23.370;2022-08-25T08:39:49;19.63;;;7.50;;
5878;SDS011;2965;42.640;23.370;2022-08-25T08:53:43;37.97;;;8.17;;
5878;SDS011;2965;42.640;23.370;2022-08-25T08:56:15;31.60;;;7.30;;
5878;SDS011;2965;42.640;23.370;2022-08-25T08:58:46;19.10;;;7.40;;
5878;SDS011;2965;42.640;23.370;2022-08-25T09:01:27;35.67;;;7.80;;
5878;SDS011;2965;42.640;23.370;2022-08-25T09:03:58;26.47;;;7.60;;
5878;SDS011;2965;42.640;23.370;2022-08-25T09:06:40;23.93;;;6.40;;
5878;SDS011;2965;42.640;23.370;2022-08-25T09:09:08;33.17;;;7.60;;
5878;SDS011;2965;42.640;23.370;2022-08-25T09:11:42;23.00;;;6.43;;
5878;SDS011;2965;42.640;23.370;2022-08-25T09:30:36;17.87;;;5.60;;
5878;SDS011;2965;42.640;23.370;2022-08-25T09:33:24;27.30;;;6.00;;
5878;SDS011;2965;42.640;23.370;2022-08-25T09:35:51;14.50;;;6.77;;
5878;SDS011;2965;42.640;23.370;2022-08-25T09:38:18;24.13;;;5.90;;
5878;SDS011;2965;42.640;23.370;2022-08-25T09:40:45;21.43;;;6.23;;
5878;SDS011;2965;42.640;23.370;2022-08-25T09:43:22;20.17;;;6.20;;
5878;SDS011;2965;42.640;23.370;2022-08-25T09:46:08;35.60;;;8.77;;
5878;SDS011;2965;42.640;23.370;2022-08-25T09:51:18;14.03;;;6.60;;
5878;SDS011;2965;42.640;23.370;2022-08-25T09:53:53;14.77;;;5.73;;
5878;SDS011;2965;42.640;23.370;2022-08-25T09:56:21;13.33;;;4.87;;
5878;SDS011;2965;42.640;23.370;2022-08-25T09:58:49;23.87;;;5.03;;
5878;SDS011;2965;42.640;23.370;2022-08-25T10:04:01;36.03;;;7.00;;
5878;SDS011;2965;42.640;23.370;2022-08-25T10:06:33;13.87;;;5.37;;
5878;SDS011;2965;42.640;23.370;2022-08-25T10:09:07;30.17;;;6.27;;
5878;SDS011;2965;42.640;23.370;2022-08-25T10:11:43;37.53;;;6.90;;
5878;SDS011;2965;42.640;23.370;2022-08-25T10:19:48;26.17;;;5.40;;
5878;SDS011;2965;42.640;23.370;2022-08-25T10:22:29;16.23;;;5.20;;
5878;SDS011;2965;42.640;23.370;2022-08-25T10:24:58;25.97;;;6.30;;
5878;SDS011;2965;42.640;23.370;2022-08-25T10:30:29;29.00;;;5.43;;
5878;SDS011;2965;42.640;23.370;2022-08-25T10:33:19;26.47;;;5.50;;
5878;SDS011;2965;42.640;23.370;2022-08-25T10:38:44;23.33;;;5.60;;
5878;SDS011;2965;42.640;23.370;2022-08-25T10:41:26;26.53;;;6.93;;
5878;SDS011;2965;42.640;23.370;2022-08-25T10:49:47;16.53;;;4.50;;
5878;SDS011;2965;42.640;23.370;2022-08-25T10:52:35;14.93;;;4.10;;
5878;SDS011;2965;42.640;23.370;2022-08-25T10:55:18;16.73;;;4.50;;
5878;SDS011;2965;42.640;23.370;2022-08-25T10:57:53;12.47;;;4.37;;
5878;SDS011;2965;42.640;23.370;2022-08-25T11:00:25;16.57;;;3.97;;
5878;SDS011;2965;42.640;23.370;2022-08-25T11:03:19;18.83;;;4.30;;
5878;SDS011;2965;42.640;23.370;2022-08-25T11:06:12;17.23;;;4.20;;
5878;SDS011;2965;42.640;23.370;2022-08-25T11:08:44;20.63;;;4.17;;
5878;SDS011;2965;42.640;23.370;2022-08-25T11:17:12;31.80;;;4.60;;
5878;SDS011;2965;42.640;23.370;2022-08-25T11:19:42;22.77;;;4.87;;
5878;SDS011;2965;42.640;23.370;2022-08-25T11:25:00;26.30;;;4.87;;
5878;SDS011;2965;42.640;23.370;2022-08-25T11:27:37;24.37;;;4.90;;
5878;SDS011;2965;42.640;23.370;2022-08-25T11:30:24;19.23;;;4.90;;
5878;SDS011;2965;42.640;23.370;2022-08-25T11:32:51;8.97;;;4.90;;
5878;SDS011;2965;42.640;23.370;2022-08-25T11:35:19;17.87;;;5.47;;
5878;SDS011;2965;42.640;23.370;2022-08-25T11:37:56;12.87;;;6.10;;
5878;SDS011;2965;42.640;23.370;2022-08-25T11:48:34;17.00;;;5.47;;
5878;SDS011;2965;42.640;23.370;2022-08-25T11:51:09;31.90;;;5.70;;
5878;SDS011;2965;42.640;23.370;2022-08-25T11:54:12;20.67;;;4.83;;
5878;SDS011;2965;42.640;23.370;2022-08-25T11:56:42;14.40;;;5.10;;
5878;SDS011;2965;42.640;23.370;2022-08-25T11:59:58;33.67;;;5.47;;
5878;SDS011;2965;42.640;23.370;2022-08-25T12:16:07;7.60;;;4.60;;
5878;SDS011;2965;42.640;23.370;2022-08-25T12:24:50;12.80;;;5.13;;
5878;SDS011;2965;42.640;23.370;2022-08-25T12:30:20;9.27;;;4.40;;
5878;SDS011;2965;42.640;23.370;2022-08-25T12:35:31;12.63;;;4.27;;
5878;SDS011;2965;42.640;23.370;2022-08-25T12:38:13;7.87;;;4.00;;
5878;SDS011;2965;42.640;23.370;2022-08-25T12:43:10;7.27;;;4.07;;
5878;SDS011;2965;42.640;23.370;2022-08-25T12:45:48;21.20;;;4.73;;
5878;SDS011;2965;42.640;23.370;2022-08-25T12:50:56;10.20;;;4.27;;
5878;SDS011;2965;42.640;23.370;2022-08-25T12:56:08;12.73;;;4.37;;
5878;SDS011;2965;42.640;23.370;2022-08-25T12:58:55;17.57;;;3.97;;
5878;SDS011;2965;42.640;23.370;2022-08-25T13:07:06;6.83;;;4.30;;
5878;SDS011;2965;42.640;23.370;2022-08-25T13:18:11;5.10;;;4.53;;
5878;SDS011;2965;42.640;23.370;2022-08-25T13:20:43;9.90;;;5.47;;
5878;SDS011;2965;42.640;23.370;2022-08-25T13:23:09;11.60;;;4.30;;
5878;SDS011;2965;42.640;23.370;2022-08-25T13:25:44;11.23;;;4.57;;
5878;SDS011;2965;42.640;23.370;2022-08-25T13:28:18;23.27;;;4.60;;
5878;SDS011;2965;42.640;23.370;2022-08-25T13:30:54;8.40;;;4.70;;
5878;SDS011;2965;42.640;23.370;2022-08-25T13:33:22;17.33;;;4.23;;
5878;SDS011;2965;42.640;23.370;2022-08-25T13:35:52;7.13;;;4.77;;
5878;SDS011;2965;42.640;23.370;2022-08-25T13:38:38;16.03;;;5.53;;
5878;SDS011;2965;42.640;23.370;2022-08-25T13:41:04;16.73;;;4.10;;
5878;SDS011;2965;42.640;23.370;2022-08-25T13:43:31;11.20;;;5.07;;
5878;SDS011;2965;42.640;23.370;2022-08-25T13:45:57;14.43;;;5.07;;
5878;SDS011;2965;42.640;23.370;2022-08-25T13:48:33;7.23;;;4.33;;
5878;SDS011;2965;42.640;23.370;2022-08-25T13:51:17;24.40;;;4.37;;
5878;SDS011;2965;42.640;23.370;2022-08-25T13:53:47;14.70;;;4.53;;
5878;SDS011;2965;42.640;23.370;2022-08-25T13:56:21;10.83;;;3.80;;
5878;SDS011;2965;42.640;23.370;2022-08-25T13:58:51;8.70;;;4.73;;
5878;SDS011;2965;42.640;23.370;2022-08-25T14:01:19;11.23;;;4.07;;
5878;SDS011;2965;42.640;23.370;2022-08-25T14:03:47;7.60;;;4.70;;
5878;SDS011;2965;42.640;23.370;2022-08-25T14:09:01;9.07;;;4.00;;
5878;SDS011;2965;42.640;23.370;2022-08-25T14:11:27;15.97;;;5.07;;
5878;SDS011;2965;42.640;23.370;2022-08-25T14:14:28;18.13;;;4.07;;
5878;SDS011;2965;42.640;23.370;2022-08-25T14:16:50;8.90;;;4.60;;
5878;SDS011;2965;42.640;23.370;2022-08-25T14:19:22;18.80;;;4.83;;
5878;SDS011;2965;42.640;23.370;2022-08-25T14:21:49;19.67;;;4.33;;
5878;SDS011;2965;42.640;23.370;2022-08-25T14:24:17;19.17;;;4.57;;
5878;SDS011;2965;42.640;23.370;2022-08-25T14:26:45;9.77;;;4.97;;
5878;SDS011;2965;42.640;23.370;2022-08-25T14:29:12;23.87;;;4.53;;
5878;SDS011;2965;42.640;23.370;2022-08-25T14:31:39;7.40;;;4.40;;
5878;SDS011;2965;42.640;23.370;2022-08-25T14:36:40;10.30;;;5.00;;
5878;SDS011;2965;42.640;23.370;2022-08-25T14:39:07;11.63;;;4.07;;
5878;SDS011;2965;42.640;23.370;2022-08-25T14:41:34;22.43;;;5.43;;
5878;SDS011;2965;42.640;23.370;2022-08-25T14:44:01;18.07;;;5.00;;
5878;SDS011;2965;42.640;23.370;2022-08-25T14:46:29;14.67;;;6.50;;
5878;SDS011;2965;42.640;23.370;2022-08-25T14:48:58;14.53;;;5.00;;
5878;SDS011;2965;42.640;23.370;2022-08-25T14:51:27;29.57;;;4.50;;
5878;SDS011;2965;42.640;23.370;2022-08-25T14:53:54;21.87;;;4.90;;
5878;SDS011;2965;42.640;23.370;2022-08-25T14:56:23;6.23;;;3.90;;
5878;SDS011;2965;42.640;23.370;2022-08-25T14:58:48;20.07;;;4.30;;
5878;SDS011;2965;42.640;23.370;2022-08-25T15:01:15;12.40;;;4.10;;
5878;SDS011;2965;42.640;23.370;2022-08-25T15:03:42;28.83;;;4.43;;
5878;SDS011;2965;42.640;23.370;2022-08-25T15:06:10;11.50;;;4.53;;
5878;SDS011;2965;42.640;23.370;2022-08-25T15:08:37;10.33;;;4.90;;
5878;SDS011;2965;42.640;23.370;2022-08-25T15:11:21;18.23;;;4.30;;
5878;SDS011;2965;42.640;23.370;2022-08-25T15:13:46;16.10;;;5.07;;
5878;SDS011;2965;42.640;23.370;2022-08-25T15:16:35;17.27;;;4.40;;
5878;SDS011;2965;42.640;23.370;2022-08-25T15:19:00;14.10;;;4.90;;
5878;SDS011;2965;42.640;23.370;2022-08-25T15:21:28;25.13;;;4.20;;
5878;SDS011;2965;42.640;23.370;2022-08-25T15:23:55;7.83;;;4.30;;
5878;SDS011;2965;42.640;23.370;2022-08-25T15:26:20;12.90;;;5.43;;
5878;SDS011;2965;42.640;23.370;2022-08-25T15:28:48;19.97;;;5.20;;
5878;SDS011;2965;42.640;23.370;2022-08-25T15:31:15;12.90;;;4.53;;
5878;SDS011;2965;42.640;23.370;2022-08-25T15:33:42;12.93;;;4.53;;
5878;SDS011;2965;42.640;23.370;2022-08-25T15:36:08;10.70;;;4.73;;
5878;SDS011;2965;42.640;23.370;2022-08-25T15:38:37;10.30;;;4.57;;
5878;SDS011;2965;42.640;23.370;2022-08-25T15:41:03;15.73;;;5.70;;
5878;SDS011;2965;42.640;23.370;2022-08-25T15:43:30;10.47;;;5.00;;
5878;SDS011;2965;42.640;23.370;2022-08-25T15:45:56;14.57;;;4.40;;
5878;SDS011;2965;42.640;23.370;2022-08-25T15:48:22;12.23;;;3.90;;
5878;SDS011;2965;42.640;23.370;2022-08-25T15:50:51;13.40;;;4.50;;
5878;SDS011;2965;42.640;23.370;2022-08-25T15:53:24;10.40;;;4.73;;
5878;SDS011;2965;42.640;23.370;2022-08-25T15:55:51;14.10;;;4.83;;
5878;SDS011;2965;42.640;23.370;2022-08-25T15:58:17;17.50;;;4.80;;
5878;SDS011;2965;42.640;23.370;2022-08-25T16:00:43;22.63;;;4.50;;
5878;SDS011;2965;42.640;23.370;2022-08-25T16:03:10;16.67;;;4.80;;
5878;SDS011;2965;42.640;23.370;2022-08-25T16:05:37;7.47;;;5.20;;
5878;SDS011;2965;42.640;23.370;2022-08-25T16:08:04;14.80;;;4.70;;
5878;SDS011;2965;42.640;23.370;2022-08-25T16:10:40;4.67;;;4.07;;
5878;SDS011;2965;42.640;23.370;2022-08-25T16:13:07;5.47;;;4.57;;
5878;SDS011;2965;42.640;23.370;2022-08-25T16:15:33;18.40;;;5.27;;
5878;SDS011;2965;42.640;23.370;2022-08-25T16:17:59;18.30;;;4.60;;
5878;SDS011;2965;42.640;23.370;2022-08-25T16:20:27;19.57;;;4.97;;
5878;SDS011;2965;42.640;23.370;2022-08-25T16:22:54;10.53;;;4.73;;
5878;SDS011;2965;42.640;23.370;2022-08-25T16:25:19;14.27;;;4.57;;
5878;SDS011;2965;42.640;23.370;2022-08-25T16:27:45;15.20;;;5.50;;
5878;SDS011;2965;42.640;23.370;2022-08-25T16:30:11;6.73;;;4.77;;
5878;SDS011;2965;42.640;23.370;2022-08-25T16:32:37;9.43;;;4.10;;
5878;SDS011;2965;42.640;23.370;2022-08-25T16:35:04;17.73;;;4.57;;
5878;SDS011;2965;42.640;23.370;2022-08-25T16:37:33;34.13;;;6.10;;
5878;SDS011;2965;42.640;23.370;2022-08-25T16:39:59;29.40;;;6.10;;
5878;SDS011;2965;42.640;23.370;2022-08-25T16:42:25;17.47;;;4.90;;
5878;SDS011;2965;42.640;23.370;2022-08-25T16:44:51;19.13;;;5.80;;
5878;SDS011;2965;42.640;23.370;2022-08-25T16:47:18;20.70;;;5.40;;
5878;SDS011;2965;42.640;23.370;2022-08-25T16:49:43;7.63;;;5.10;;
5878;SDS011;2965;42.640;23.370;2022-08-25T16:52:09;16.43;;;5.13;;
5878;SDS011;2965;42.640;23.370;2022-08-25T16:54:53;10.20;;;4.70;;
5878;SDS011;2965;42.640;23.370;2022-08-25T16:58:10;14.53;;;4.77;;
5878;SDS011;2965;42.640;23.370;2022-08-25T17:00:29;21.23;;;4.80;;